Time;durP1;ratioP1;P1;durP2;ratioP2;P2;SDS_P1;SDS_P2;PMS_P1;PMS_P2;Temp;Humidity;BMP_temperature;BMP_pressure;BME280_temperature;BME280_humidity;BME280_pressure;Samples;Min_cycle;Max_cycle;Signal;HPM_P1;HPM_P2
2021/08/01 00:02:33;;;;;;;3.50;1.63;;;17.60;99.90;17.30;96281.00;;;;5045172;28;20208;-71
2021/08/01 00:05:24;;;;;;;1.90;1.70;;;17.60;99.90;17.30;96273.00;;;;5044663;28;20307;-71
2021/08/01 00:08:13;;;;;;;1.33;1.00;;;17.60;99.90;17.30;96251.00;;;;5045452;28;20687;-71
2021/08/01 00:11:02;;;;;;;1.53;1.40;;;17.60;99.90;17.30;96228.00;;;;5045524;28;20213;-71
2021/08/01 00:13:51;;;;;;;2.60;1.20;;;17.60;99.90;17.20;96229.00;;;;5045445;28;20679;-71
2021/08/01 00:16:40;;;;;;;1.57;1.17;;;17.60;99.90;17.00;96231.00;;;;5044844;28;20240;-71
2021/08/01 00:19:29;;;;;;;1.60;1.37;;;17.50;99.90;16.90;96235.00;;;;5045472;28;20787;-71
2021/08/01 00:22:20;;;;;;;4.33;1.60;;;17.50;99.90;16.80;96250.00;;;;5044359;28;20208;-71
2021/08/01 00:25:11;;;;;;;2.03;1.70;;;17.40;99.90;16.90;96243.00;;;;5044283;28;20224;-71
2021/08/01 00:28:00;;;;;;;3.43;1.50;;;17.30;99.90;17.00;96234.00;;;;5045207;28;20227;-71
2021/08/01 00:30:48;;;;;;;1.87;1.40;;;17.30;99.90;17.10;96235.00;;;;5045320;28;20675;-71
2021/08/01 00:33:37;;;;;;;4.40;1.63;;;17.30;99.90;17.20;96231.00;;;;5044251;28;20212;-71
2021/08/01 00:36:26;;;;;;;2.17;1.23;;;17.40;99.90;17.20;96213.00;;;;5044296;28;20208;-71
2021/08/01 00:39:17;;;;;;;1.83;1.50;;;17.40;99.90;17.10;96204.00;;;;5044838;28;20747;-71
2021/08/01 00:42:07;;;;;;;1.77;1.30;;;17.40;99.90;17.00;96206.00;;;;5045206;28;20295;-71
2021/08/01 00:44:56;;;;;;;2.17;1.03;;;17.40;99.90;17.10;96213.00;;;;5044683;28;20201;-72
2021/08/01 00:47:45;;;;;;;1.70;1.17;;;17.40;99.90;17.20;96213.00;;;;5044638;28;20730;-71
2021/08/01 00:50:34;;;;;;;1.43;1.27;;;17.40;99.90;17.20;96216.00;;;;5032715;28;20207;-71
2021/08/01 00:53:23;;;;;;;3.70;1.47;;;17.40;99.90;17.30;96210.00;;;;5043674;28;20605;-71
2021/08/01 00:56:13;;;;;;;3.47;1.30;;;17.50;99.90;17.30;96203.00;;;;5042766;28;20258;-71
2021/08/01 00:59:03;;;;;;;1.53;1.43;;;17.50;99.90;17.30;96206.00;;;;5044249;28;20224;-72
2021/08/01 01:02:01;;;;;;;1.40;1.30;;;17.50;99.90;17.30;96209.00;;;;5043295;28;20223;-71
2021/08/01 01:05:06;;;;;;;1.40;1.27;;;17.60;99.90;17.30;96174.00;;;;5043531;28;20291;-71
2021/08/01 01:08:03;;;;;;;3.10;1.10;;;17.60;99.90;17.40;96166.00;;;;5043454;28;20224;-72
2021/08/01 01:10:58;;;;;;;1.93;1.30;;;17.60;99.90;17.50;96160.00;;;;5043872;28;20215;-72
2021/08/01 01:13:53;;;;;;;2.43;1.27;;;17.60;99.90;17.20;96173.00;;;;5043472;28;20203;-71
2021/08/01 01:16:49;;;;;;;4.07;1.40;;;17.60;99.90;17.10;96180.00;;;;5043723;28;20207;-71
2021/08/01 01:20:09;;;;;;;1.70;1.60;;;17.60;99.90;17.20;96197.00;;;;5042660;28;20216;-71
2021/08/01 01:23:16;;;;;;;2.13;1.40;;;17.50;99.90;17.20;96196.00;;;;5043757;28;20215;-71
2021/08/01 01:26:10;;;;;;;2.17;1.90;;;17.50;99.90;17.30;96181.00;;;;5043346;28;20930;-71
2021/08/01 01:29:15;;;;;;;1.97;1.70;;;17.60;99.90;17.50;96183.00;;;;5044983;28;20808;-71
2021/08/01 01:32:11;;;;;;;2.00;1.70;;;17.60;99.90;17.40;96169.00;;;;5045196;28;20206;-72
2021/08/01 01:35:05;;;;;;;2.50;1.10;;;17.60;99.90;17.50;96144.00;;;;5050350;28;20211;-72
2021/08/01 01:37:56;;;;;;;1.97;1.50;;;17.60;99.90;17.60;96151.00;;;;5040435;28;20714;-72
2021/08/01 01:40:46;;;;;;;3.37;1.53;;;17.70;99.90;17.40;96227.00;;;;5036336;28;20208;-72
2021/08/01 01:43:36;;;;;;;1.67;1.53;;;17.70;99.90;17.10;96304.00;;;;5049066;28;20219;-71
2021/08/01 01:46:27;;;;;;;4.70;1.70;;;17.60;99.90;17.30;96258.00;;;;5002351;28;1381294;-71
2021/08/01 01:49:17;;;;;;;4.70;2.10;;;17.60;99.90;17.50;96187.00;;;;5052486;28;20287;-70
2021/08/01 01:52:08;;;;;;;2.03;1.27;;;17.60;99.90;17.30;96183.00;;;;5051796;28;20216;-70
2021/08/01 01:54:59;;;;;;;3.10;1.40;;;17.60;99.90;17.30;96200.00;;;;5047475;28;20676;-71
2021/08/01 01:57:48;;;;;;;1.40;1.30;;;17.60;99.90;17.30;96196.00;;;;5046160;28;20228;-71
2021/08/01 02:00:38;;;;;;;2.67;1.63;;;17.60;99.90;17.30;96214.00;;;;5048906;28;21047;-71
2021/08/01 02:03:28;;;;;;;1.73;1.47;;;17.60;99.90;17.20;96212.00;;;;5035073;28;20587;-71
2021/08/01 02:06:19;;;;;;;1.90;1.80;;;17.60;99.90;17.40;96197.00;;;;5047020;28;20303;-71
2021/08/01 02:09:15;;;;;;;2.70;2.20;;;17.60;99.90;17.40;96197.00;;;;5048312;28;20253;-71
2021/08/01 02:12:14;;;;;;;1.73;1.60;;;17.60;99.90;17.20;96181.00;;;;5047988;28;20197;-71
2021/08/01 02:15:07;;;;;;;3.57;1.70;;;17.60;99.90;17.30;96149.00;;;;5047811;28;20219;-71
2021/08/01 02:18:01;;;;;;;2.40;1.70;;;17.50;99.90;17.40;96132.00;;;;5048213;28;20220;-71
2021/08/01 02:20:53;;;;;;;2.13;1.53;;;17.60;99.90;17.10;96120.00;;;;5046989;28;20208;-70
2021/08/01 02:23:46;;;;;;;3.73;2.17;;;17.60;99.90;17.10;96116.00;;;;5045887;28;20215;-71
2021/08/01 02:26:36;;;;;;;3.40;1.60;;;17.50;99.90;17.10;96094.00;;;;5046893;28;20220;-71
2021/08/01 02:29:28;;;;;;;2.60;2.33;;;17.50;99.90;17.10;96082.00;;;;5047918;28;20270;-71
2021/08/01 02:32:19;;;;;;;2.80;1.70;;;17.50;99.90;17.20;96100.00;;;;5046719;28;20213;-71
2021/08/01 02:35:09;;;;;;;2.33;1.90;;;17.50;99.90;17.10;96096.00;;;;5047175;28;20286;-71
2021/08/01 02:38:01;;;;;;;2.67;2.27;;;17.50;99.90;17.10;96095.00;;;;5047667;28;20229;-71
2021/08/01 02:40:52;;;;;;;2.00;1.60;;;17.40;99.90;17.10;96086.00;;;;5046729;28;20192;-71
2021/08/01 02:43:43;;;;;;;2.23;1.87;;;17.40;99.90;17.10;96082.00;;;;5046686;28;20197;-71
2021/08/01 02:46:34;;;;;;;1.83;1.73;;;17.40;99.90;17.20;96060.00;;;;5045808;28;20231;-71
2021/08/01 02:49:28;;;;;;;2.90;2.23;;;17.40;99.90;17.20;96028.00;;;;5047498;28;20208;-71
2021/08/01 02:52:23;;;;;;;3.33;2.67;;;17.40;99.90;17.20;96052.00;;;;5046793;28;20212;-71
2021/08/01 02:55:14;;;;;;;6.73;2.10;;;17.40;99.90;17.20;96050.00;;;;5046484;28;20829;-71
2021/08/01 02:58:05;;;;;;;2.97;2.20;;;17.40;99.90;17.20;96055.00;;;;5046298;28;20241;-71
2021/08/01 03:00:55;;;;;;;3.53;2.10;;;17.50;99.90;17.10;96047.00;;;;5046846;28;20778;-71
2021/08/01 03:03:46;;;;;;;2.60;2.40;;;17.50;99.90;17.20;96033.00;;;;5035140;28;20201;-71
2021/08/01 03:06:36;;;;;;;2.10;1.73;;;17.50;99.90;17.30;96019.00;;;;5046213;28;20254;-71
2021/08/01 03:09:25;;;;;;;3.03;2.03;;;17.50;99.90;17.10;96020.00;;;;5046723;28;20208;-69
2021/08/01 03:12:16;;;;;;;3.00;2.40;;;17.50;99.90;16.90;96029.00;;;;5046741;28;20208;-71
2021/08/01 03:15:06;;;;;;;3.40;2.30;;;17.50;99.90;17.00;96030.00;;;;5045628;28;20287;-72
2021/08/01 03:17:55;;;;;;;3.07;2.10;;;17.40;99.90;17.00;96041.00;;;;5045987;28;20232;-71
2021/08/01 03:20:46;;;;;;;5.57;2.00;;;17.40;99.90;17.10;96040.00;;;;5046043;28;20205;-71
2021/08/01 03:23:35;;;;;;;3.60;2.60;;;17.40;99.90;17.10;96046.00;;;;5046450;28;20314;-71
2021/08/01 03:26:24;;;;;;;3.87;2.63;;;17.40;99.90;17.00;96041.00;;;;5046159;28;20232;-71
2021/08/01 03:29:12;;;;;;;2.93;2.60;;;17.40;99.90;17.10;96067.00;;;;5046499;28;20215;-72
2021/08/01 03:32:01;;;;;;;2.83;2.20;;;17.40;99.90;17.30;96066.00;;;;5046344;28;20204;-72
2021/08/01 03:34:50;;;;;;;2.43;2.23;;;17.40;99.90;17.30;96053.00;;;;5042021;28;20204;-71
2021/08/01 03:37:41;;;;;;;3.00;2.30;;;17.40;99.90;17.20;96068.00;;;;5045086;28;20228;-72
2021/08/01 03:40:30;;;;;;;3.10;2.57;;;17.50;99.90;17.20;96052.00;;;;5046023;28;20207;-71
2021/08/01 03:43:19;;;;;;;3.23;2.23;;;17.50;99.90;17.30;96062.00;;;;5045664;28;20212;-72
2021/08/01 03:46:08;;;;;;;3.40;3.10;;;17.50;99.90;17.30;96060.00;;;;5045206;28;20216;-71
2021/08/01 03:48:56;;;;;;;2.47;2.27;;;17.50;99.90;17.30;96066.00;;;;5034264;28;20225;-71
2021/08/01 03:51:45;;;;;;;4.53;2.30;;;17.50;99.90;17.30;96055.00;;;;5045501;28;20242;-71
2021/08/01 03:54:36;;;;;;;3.03;2.73;;;17.60;99.90;17.40;96061.00;;;;5045402;28;20209;-71
2021/08/01 03:57:25;;;;;;;3.03;2.20;;;17.60;99.90;17.30;96055.00;;;;5045100;28;20225;-71
2021/08/01 04:00:15;;;;;;;3.50;2.40;;;17.60;99.90;17.40;96057.00;;;;5045578;28;20212;-71
2021/08/01 04:03:04;;;;;;;3.17;2.33;;;17.60;99.90;17.40;96063.00;;;;5045641;28;20263;-71
2021/08/01 04:05:54;;;;;;;3.37;2.07;;;17.60;99.90;17.30;96074.00;;;;5045569;28;20573;-71
2021/08/01 04:08:44;;;;;;;2.97;2.40;;;17.60;99.90;17.30;96075.00;;;;5044977;28;20228;-71
2021/08/01 04:11:37;;;;;;;2.73;2.50;;;17.60;99.90;17.30;96050.00;;;;5039733;28;20568;-71
2021/08/01 04:14:31;;;;;;;3.87;2.40;;;17.60;99.90;17.40;96059.00;;;;5034150;28;20216;-71
2021/08/01 04:17:22;;;;;;;5.43;3.10;;;17.60;99.90;17.40;96068.00;;;;5028827;28;20225;-71
2021/08/01 04:20:15;;;;;;;3.40;2.70;;;17.60;99.90;17.40;96077.00;;;;5034840;28;20215;-70
2021/08/01 04:23:04;;;;;;;4.40;3.57;;;17.70;99.90;17.20;96085.00;;;;5043818;28;20218;-70
2021/08/01 04:25:55;;;;;;;3.33;3.03;;;17.60;99.90;17.30;96065.00;;;;5044371;28;20211;-70
2021/08/01 04:28:46;;;;;;;3.60;2.33;;;17.60;99.90;17.40;96047.00;;;;5044245;28;20303;-71
2021/08/01 04:31:35;;;;;;;3.33;3.03;;;17.60;99.90;17.30;96043.00;;;;5041379;28;20275;-71
2021/08/01 04:34:26;;;;;;;4.53;3.23;;;17.60;99.90;17.30;96044.00;;;;5038062;28;20690;-71
2021/08/01 04:37:16;;;;;;;4.50;2.83;;;17.60;99.90;17.40;96040.00;;;;5037443;28;20232;-71
2021/08/01 04:40:08;;;;;;;5.37;4.20;;;17.60;99.90;17.40;96032.00;;;;5040141;28;20200;-71
2021/08/01 04:42:58;;;;;;;7.43;3.83;;;17.60;99.90;17.30;96039.00;;;;5044224;28;20715;-71
2021/08/01 04:45:48;;;;;;;5.40;3.40;;;17.60;99.90;17.20;96042.00;;;;5039136;28;20212;-71
2021/08/01 04:48:37;;;;;;;3.90;3.50;;;17.60;99.90;17.00;96056.00;;;;5044154;28;20232;-71
2021/08/01 04:51:27;;;;;;;6.20;3.80;;;17.60;99.90;17.00;96043.00;;;;5044556;28;20809;-70
2021/08/01 04:54:18;;;;;;;6.30;3.63;;;17.50;99.90;17.20;96040.00;;;;5042162;28;20192;-71
2021/08/01 04:57:09;;;;;;;4.37;3.97;;;17.50;99.90;17.10;96060.00;;;;5040507;28;20224;-71
2021/08/01 04:59:59;;;;;;;4.13;3.73;;;17.50;99.90;17.30;96057.00;;;;5044561;28;20248;-71
2021/08/01 05:02:50;;;;;;;4.77;3.80;;;17.50;99.90;17.50;96038.00;;;;5043718;28;20209;-71
2021/08/01 05:05:39;;;;;;;3.90;3.50;;;17.60;99.90;17.60;96050.00;;;;5030674;28;20204;-71
2021/08/01 05:08:28;;;;;;;4.17;3.63;;;17.70;99.90;17.70;96040.00;;;;5036138;28;20229;-72
2021/08/01 05:11:17;;;;;;;4.00;3.60;;;17.80;99.90;18.00;96044.00;;;;5044192;28;20204;-72
2021/08/01 05:14:06;;;;;;;5.50;3.47;;;17.90;99.90;18.10;96041.00;;;;5044920;28;20204;-72
2021/08/01 05:16:55;;;;;;;4.40;4.00;;;18.00;99.90;18.20;96048.00;;;;5044842;28;20242;-72
2021/08/01 05:19:47;;;;;;;4.17;3.77;;;18.20;99.90;18.30;96037.00;;;;5044907;28;21068;-72
2021/08/01 05:22:35;;;;;;;3.23;2.87;;;18.30;99.90;18.30;96053.00;;;;5044272;28;20580;-73
2021/08/01 05:25:25;;;;;;;8.67;3.07;;;18.30;99.90;18.20;96050.00;;;;5044441;28;20205;-72
2021/08/01 05:28:14;;;;;;;4.77;3.37;;;18.40;99.90;18.10;96031.00;;;;5027222;28;20229;-72
2021/08/01 05:31:03;;;;;;;6.87;4.20;;;18.40;99.90;18.10;96029.00;;;;5043202;28;20200;-75
2021/08/01 05:33:52;;;;;;;6.53;3.30;;;18.30;99.90;18.20;96020.00;;;;5044741;28;20205;-72
2021/08/01 05:36:42;;;;;;;3.97;3.60;;;18.30;99.90;18.30;96018.00;;;;5042828;28;20216;-71
2021/08/01 05:39:34;;;;;;;3.73;3.03;;;18.40;99.90;18.20;96017.00;;;;5032221;28;20200;-73
2021/08/01 05:42:25;;;;;;;3.43;3.13;;;18.40;99.90;18.20;95978.00;;;;5037606;28;20691;-74
2021/08/01 05:45:14;;;;;;;4.47;3.33;;;18.40;99.90;18.30;95972.00;;;;5039624;28;20227;-72
2021/08/01 05:48:02;;;;;;;4.50;2.87;;;18.40;99.90;18.20;95972.00;;;;5044708;28;20236;-72
2021/08/01 05:50:51;;;;;;;5.27;3.27;;;18.50;99.90;18.20;95974.00;;;;5041939;28;20581;-72
2021/08/01 05:53:42;;;;;;;3.30;3.00;;;18.50;99.90;18.30;95960.00;;;;5042510;28;20212;-73
2021/08/01 05:56:31;;;;;;;4.97;3.93;;;18.50;99.90;18.30;95971.00;;;;5043709;28;20213;-72
2021/08/01 05:59:20;;;;;;;3.50;3.20;;;18.50;99.90;18.40;95974.00;;;;5044484;28;20227;-73
2021/08/01 06:02:08;;;;;;;5.10;3.23;;;18.60;99.90;18.40;95986.00;;;;5043360;28;20209;-73
2021/08/01 06:04:57;;;;;;;3.77;2.53;;;18.60;99.90;18.30;96006.00;;;;5042667;28;20290;-75
2021/08/01 06:07:46;;;;;;;4.27;3.37;;;18.60;99.90;18.20;96008.00;;;;5043534;28;20307;-73
2021/08/01 06:10:37;;;;;;;4.13;3.07;;;18.60;99.90;18.30;95988.00;;;;5040072;28;20219;-74
2021/08/01 06:13:26;;;;;;;5.80;3.80;;;18.60;99.90;18.40;95980.00;;;;5043318;28;20251;-75
2021/08/01 06:16:16;;;;;;;7.03;4.77;;;18.60;99.90;18.40;95978.00;;;;5046720;28;20209;-73
2021/08/01 06:19:06;;;;;;;5.40;4.37;;;18.60;99.90;18.50;95973.00;;;;5049173;28;20321;-75
2021/08/01 06:21:55;;;;;;;5.70;3.77;;;18.60;99.90;18.50;95978.00;;;;5048309;28;20208;-72
2021/08/01 06:24:44;;;;;;;5.40;3.67;;;18.60;99.90;18.50;95973.00;;;;5048278;28;20222;-75
2021/08/01 06:27:35;;;;;;;5.27;3.70;;;18.70;99.90;18.50;95966.00;;;;5048229;28;20220;-72
2021/08/01 06:30:23;;;;;;;3.73;3.00;;;18.70;99.90;18.50;95966.00;;;;5028509;28;20688;-73
2021/08/01 06:33:12;;;;;;;4.07;3.43;;;18.70;99.90;18.40;95963.00;;;;5027879;28;20212;-73
2021/08/01 06:36:05;;;;;;;4.67;3.47;;;18.70;99.90;18.20;95973.00;;;;5028081;28;20198;-71
2021/08/01 06:38:54;;;;;;;4.03;3.63;;;18.60;99.90;18.20;95989.00;;;;5025857;28;20225;-73
2021/08/01 06:41:43;;;;;;;4.43;3.83;;;18.50;99.90;18.20;95990.00;;;;5028273;28;20201;-73
2021/08/01 06:44:34;;;;;;;4.67;3.57;;;18.50;99.90;18.30;95981.00;;;;5027465;28;20201;-73
2021/08/01 06:47:23;;;;;;;5.63;4.43;;;18.50;99.90;18.20;96014.00;;;;5036333;28;20217;-74
2021/08/01 06:50:12;;;;;;;3.57;3.27;;;18.50;99.90;18.20;96012.00;;;;5047957;28;20201;-74
2021/08/01 06:53:01;;;;;;;3.90;3.60;;;18.50;99.90;18.30;96003.00;;;;5046235;28;20204;-73
2021/08/01 06:55:50;;;;;;;4.43;4.03;;;18.50;99.90;18.30;96005.00;;;;5026231;28;20197;-73
2021/08/01 06:58:38;;;;;;;4.30;3.90;;;18.50;99.90;18.00;96026.00;;;;5027468;28;20225;-71
2021/08/01 07:01:29;;;;;;;5.77;4.70;;;18.50;99.90;17.90;96049.00;;;;5041093;28;20568;-73
2021/08/01 07:04:18;;;;;;;3.93;3.37;;;19.30;99.90;18.20;96011.00;;;;5045261;28;20254;-73
2021/08/01 07:07:07;;;;;;;5.67;3.70;;;18.40;99.90;18.50;96016.00;;;;5045671;28;20235;-73
2021/08/01 07:09:55;;;;;;;4.77;3.90;;;18.50;99.90;18.50;96016.00;;;;5046134;28;20228;-73
2021/08/01 07:12:56;;;;;;;7.03;3.43;;;18.60;99.90;18.70;96046.00;;;;5046526;28;20216;-72
2021/08/01 07:15:45;;;;;;;4.23;3.47;;;18.70;99.90;18.70;96046.00;;;;5027323;28;20231;-73
2021/08/01 07:18:35;;;;;;;2.93;2.63;;;18.80;99.90;18.80;96025.00;;;;5045405;28;20228;-74
2021/08/01 07:21:24;;;;;;;4.10;3.33;;;18.90;99.90;18.80;96055.00;;;;5047455;28;20220;-73
2021/08/01 07:24:13;;;;;;;5.83;3.77;;;18.90;99.90;18.90;96044.00;;;;5045063;28;20212;-73
2021/08/01 07:27:02;;;;;;;4.83;3.27;;;19.00;99.90;19.00;96022.00;;;;5045753;28;20204;-73
2021/08/01 07:29:51;;;;;;;4.40;3.20;;;19.10;99.90;19.20;96008.00;;;;5042549;28;20264;-73
2021/08/01 07:32:40;;;;;;;4.03;3.63;;;19.10;99.90;19.30;96024.00;;;;5039728;28;20572;-74
2021/08/01 07:35:31;;;;;;;8.67;3.93;;;19.20;99.90;19.30;96022.00;;;;5046560;28;20200;-73
2021/08/01 07:38:19;;;;;;;5.20;4.23;;;19.40;99.90;19.10;96031.00;;;;5046970;28;20773;-74
2021/08/01 07:41:08;;;;;;;5.23;3.87;;;19.40;99.90;19.30;96002.00;;;;5047178;28;20208;-73
2021/08/01 07:43:57;;;;;;;7.17;3.83;;;19.40;99.90;19.40;96006.00;;;;5047067;28;20207;-73
2021/08/01 07:46:46;;;;;;;4.50;3.90;;;19.50;99.90;19.40;96005.00;;;;5046453;28;20204;-74
2021/08/01 07:49:35;;;;;;;3.47;3.17;;;19.50;99.90;19.40;95989.00;;;;5047981;28;20399;-73
2021/08/01 07:52:25;;;;;;;5.30;3.23;;;19.60;99.90;19.70;95972.00;;;;5047575;28;20232;-74
2021/08/01 07:55:17;;;;;;;5.00;3.90;;;19.70;99.90;20.00;95957.00;;;;5046106;28;20208;-74
2021/08/01 07:58:06;;;;;;;4.57;4.17;;;19.80;99.90;20.20;95939.00;;;;5047534;28;20236;-74
2021/08/01 08:00:55;;;;;;;4.07;3.20;;;20.00;99.90;20.50;95911.00;;;;5046518;28;20215;-74
2021/08/01 08:03:44;;;;;;;3.97;3.63;;;20.20;99.90;20.70;95868.00;;;;5046897;28;20741;-72
2021/08/01 08:06:33;;;;;;;2.93;2.67;;;20.40;99.90;20.50;95862.00;;;;5046441;28;20244;-76
2021/08/01 08:09:26;;;;;;;3.67;3.37;;;20.50;99.90;20.90;95859.00;;;;5044782;28;20238;-75
2021/08/01 08:12:15;;;;;;;2.90;2.60;;;20.70;99.90;21.40;95852.00;;;;5047057;28;21038;-75
2021/08/01 08:15:06;;;;;;;3.63;3.17;;;20.90;99.90;21.40;95867.00;;;;5047038;28;20207;-73
2021/08/01 08:17:55;;;;;;;5.57;3.07;;;21.10;99.90;21.10;95892.00;;;;5047100;28;20274;-73
2021/08/01 08:20:44;;;;;;;3.30;3.00;;;21.20;99.90;20.60;95895.00;;;;5047544;28;20587;-73
2021/08/01 08:23:34;;;;;;;4.83;3.30;;;21.10;99.90;20.30;95906.00;;;;5046582;28;20208;-74
2021/08/01 08:26:24;;;;;;;3.23;2.93;;;21.00;99.90;20.30;95904.00;;;;5046233;28;20253;-74
2021/08/01 08:29:13;;;;;;;3.07;2.77;;;20.90;99.90;20.70;95915.00;;;;5046932;28;20227;-75
2021/08/01 08:32:02;;;;;;;3.80;3.10;;;20.90;99.90;20.20;95940.00;;;;5046935;28;20209;-73
2021/08/01 08:34:51;;;;;;;5.03;3.93;;;20.70;99.90;20.70;95947.00;;;;5047521;28;20197;-73
2021/08/01 08:37:48;;;;;;;3.80;3.10;;;20.80;99.90;20.70;95953.00;;;;5046138;28;20221;-72
2021/08/01 08:40:40;;;;;;;4.27;3.87;;;20.90;99.90;20.50;95956.00;;;;5046716;28;20969;-72
2021/08/01 08:43:30;;;;;;;3.30;3.00;;;20.90;99.90;20.50;95953.00;;;;5046229;28;20207;-73
2021/08/01 08:46:20;;;;;;;3.43;3.13;;;20.80;99.90;20.30;95929.00;;;;5045982;28;20217;-75
2021/08/01 08:49:11;;;;;;;5.13;3.50;;;20.70;99.90;20.70;95909.00;;;;5047496;28;20684;-74
2021/08/01 08:52:00;;;;;;;4.73;4.33;;;20.70;99.90;20.80;95899.00;;;;5047306;28;20580;-75
2021/08/01 08:54:50;;;;;;;4.07;3.40;;;20.80;99.90;20.90;95901.00;;;;5045725;28;20207;-72
2021/08/01 08:57:42;;;;;;;6.27;4.13;;;20.90;99.90;21.50;95901.00;;;;5046680;28;20274;-73
2021/08/01 09:00:36;;;;;;;5.47;3.97;;;21.10;99.90;22.30;95870.00;;;;5046507;28;20196;-74
2021/08/01 09:03:26;;;;;;;3.40;3.10;;;21.40;99.90;21.70;95898.00;;;;5045994;28;20205;-74
2021/08/01 09:06:15;;;;;;;3.80;3.50;;;21.80;99.90;22.00;95885.00;;;;5046183;28;20267;-74
2021/08/01 09:09:04;;;;;;;3.60;3.30;;;21.90;99.90;22.20;95875.00;;;;5046669;28;20217;-74
2021/08/01 09:11:53;;;;;;;5.80;3.53;;;22.10;99.90;22.50;95903.00;;;;5046623;28;20200;-72
2021/08/01 09:14:42;;;;;;;6.10;3.43;;;22.40;99.90;22.20;95898.00;;;;5046374;28;20208;-73
2021/08/01 09:17:39;;;;;;;4.03;3.43;;;22.50;99.90;22.50;95879.00;;;;5045974;28;20224;-74
2021/08/01 09:20:32;;;;;;;3.63;3.27;;;22.50;99.90;23.40;95854.00;;;;5046767;28;20200;-75
2021/08/01 09:23:21;;;;;;;3.83;3.53;;;22.80;99.90;23.50;95866.00;;;;5045162;28;20192;-72
2021/08/01 09:26:10;;;;;;;4.10;3.70;;;23.20;99.90;23.70;95838.00;;;;5045441;28;20676;-74
2021/08/01 09:29:04;;;;;;;4.33;3.40;;;23.40;99.90;23.80;95846.00;;;;5045805;28;20221;-73
2021/08/01 09:32:00;;;;;;;4.43;3.47;;;23.60;99.90;24.20;95884.00;;;;5045128;28;20206;-73
2021/08/01 09:34:50;;;;;;;4.47;3.60;;;23.90;99.90;23.80;95862.00;;;;5045800;28;20208;-75
2021/08/01 09:37:41;;;;;;;3.73;3.40;;;24.10;99.90;23.40;95858.00;;;;5045632;28;20228;-73
2021/08/01 09:40:31;;;;;;;4.43;3.83;;;24.10;99.90;23.40;95801.00;;;;5045225;28;20210;-73
2021/08/01 09:43:21;;;;;;;3.80;3.30;;;24.00;99.90;23.90;95825.00;;;;5045790;28;20211;-73
2021/08/01 09:46:10;;;;;;;3.73;3.43;;;23.90;99.90;24.00;95809.00;;;;5045581;28;20215;-71
2021/08/01 09:49:12;;;;;;;4.10;3.57;;;23.90;99.90;24.00;95808.00;;;;5044810;28;20217;-72
2021/08/01 09:52:04;;;;;;;4.17;3.70;;;23.90;99.90;24.40;95829.00;;;;5050072;28;20828;-72
2021/08/01 09:54:53;;;;;;;5.00;3.73;;;24.10;99.90;25.30;95819.00;;;;5050220;28;20201;-73
2021/08/01 09:57:52;;;;;;;5.00;3.50;;;24.40;99.90;25.70;95821.00;;;;5049728;28;20304;-73
2021/08/01 10:00:59;;;;;;;4.93;3.97;;;24.80;99.90;25.30;95854.00;;;;5049514;28;20206;-74
2021/08/01 10:03:51;;;;;;;3.67;3.37;;;25.10;99.90;24.40;95854.00;;;;5036134;22;20248;-85
2021/08/01 10:06:40;;;;;;;4.10;3.07;;;24.90;99.90;23.20;95853.00;;;;5015409;28;20259;-87
2021/08/01 10:09:30;;;;;;;5.23;3.40;;;24.50;99.90;22.30;95842.00;;;;5015034;28;20262;-89
2021/08/01 10:12:19;;;;;;;5.57;3.07;;;23.80;99.90;22.60;95818.00;;;;5013021;28;20569;-87
2021/08/01 10:15:09;;;;;;;5.67;3.30;;;23.40;99.90;22.60;95808.00;;;;5015630;28;20305;-87
2021/08/01 10:17:59;;;;;;;5.40;3.23;;;23.20;99.90;22.30;95812.00;;;;5016543;28;20202;-87
2021/08/01 10:20:48;;;;;;;3.57;3.27;;;23.00;99.90;22.20;95815.00;;;;5014426;28;20205;-85
2021/08/01 10:23:41;;;;;;;3.63;3.33;;;22.80;99.90;22.40;95789.00;;;;5010870;28;20218;-88
2021/08/01 10:26:39;;;;;;;6.00;3.63;;;22.70;99.90;22.60;95773.00;;;;5016215;28;20206;-87
2021/08/01 10:29:34;;;;;;;5.77;3.27;;;22.60;99.90;22.30;95782.00;;;;5015681;28;20201;-89
2021/08/01 10:32:26;;;;;;;7.00;3.33;;;22.60;99.90;22.20;95795.00;;;;5015694;28;20213;-88
2021/08/01 10:35:17;;;;;;;4.03;3.63;;;22.60;99.90;22.20;95801.00;;;;5016661;28;20214;-87
2021/08/01 10:38:11;;;;;;;3.37;3.07;;;22.50;99.90;22.10;95792.00;;;;5015102;28;20213;-88
2021/08/01 10:41:02;;;;;;;3.67;3.27;;;22.40;99.90;21.80;95778.00;;;;5015892;28;20201;-86
2021/08/01 10:43:56;;;;;;;4.20;3.70;;;22.30;99.90;21.90;95773.00;;;;5015575;28;20248;-89
2021/08/01 10:46:45;;;;;;;3.33;3.00;;;22.10;99.90;21.90;95753.00;;;;5018404;28;20197;-87
2021/08/01 10:49:40;;;;;;;4.00;3.23;;;22.10;99.90;21.90;95752.00;;;;5035606;28;20193;-88
2021/08/01 10:52:34;;;;;;;5.30;4.30;;;22.10;99.90;22.00;95747.00;;;;5033837;28;20632;-87
2021/08/01 10:55:24;;;;;;;3.67;3.37;;;22.10;99.90;21.90;95757.00;;;;5018508;28;20218;-87
2021/08/01 10:58:15;;;;;;;3.63;3.40;;;22.10;99.90;21.80;95775.00;;;;5016474;28;20574;-86
2021/08/01 11:01:07;;;;;;;3.63;3.33;;;22.00;99.90;21.70;95788.00;;;;5014684;28;20687;-88
2021/08/01 11:04:32;;;;;;;4.87;3.50;;;22.00;99.90;21.50;95792.00;;;;5014896;28;20234;-87
2021/08/01 11:08:01;;;;;;;4.00;3.70;;;21.90;99.90;21.00;95812.00;;;;5013700;28;20675;-88
2021/08/01 11:11:17;;;;;;;5.27;4.40;;;21.70;99.90;20.90;95813.00;;;;5015135;28;20645;-87
2021/08/01 11:14:07;;;;;;;5.07;3.73;;;21.50;99.90;21.00;95821.00;;;;5013675;28;20280;-88
2021/08/01 11:16:57;;;;;;;5.77;4.43;;;21.40;99.90;21.00;95834.00;;;;5013607;28;20666;-86
2021/08/01 11:19:46;;;;;;;4.93;4.00;;;21.30;99.90;20.90;95842.00;;;;4992644;28;20288;-86
2021/08/01 11:22:50;;;;;;;4.53;4.13;;;21.20;99.90;20.80;95847.00;;;;4993709;28;20203;-87
2021/08/01 11:25:47;;;;;;;5.87;4.87;;;21.20;99.90;20.70;95846.00;;;;4999549;28;20210;-87
2021/08/01 11:28:37;;;;;;;4.47;3.67;;;21.00;99.90;20.60;95837.00;;;;4995621;28;20202;-86
2021/08/01 11:31:26;;;;;;;4.57;4.03;;;21.00;99.90;20.70;95848.00;;;;4993145;28;20710;-86
2021/08/01 11:34:22;;;;;;;5.60;5.10;;;19.60;99.90;20.30;95863.00;;;;4993346;28;20230;-86
2021/08/01 11:37:19;;;;;;;4.67;4.17;;;20.90;99.90;20.30;95858.00;;;;4995108;28;20207;-84
2021/08/01 11:40:09;;;;;;;7.57;4.53;;;20.80;99.90;20.30;95865.00;;;;4995023;28;20237;-84
2021/08/01 11:43:06;;;;;;;4.80;4.40;;;20.70;99.90;20.20;95856.00;;;;5012928;28;20202;-84
2021/08/01 11:46:06;;;;;;;5.70;5.13;;;20.60;99.90;20.30;95865.00;;;;5013093;28;20202;-85
2021/08/01 11:48:59;;;;;;;9.30;5.20;;;20.60;99.90;20.20;95867.00;;;;4993084;28;20191;-84
2021/08/01 11:51:51;;;;;;;4.97;4.47;;;20.60;99.90;20.10;95889.00;;;;4992947;28;20219;-85
2021/08/01 11:54:43;;;;;;;6.03;5.23;;;20.60;99.90;19.90;95912.00;;;;5013784;28;20213;-85
2021/08/01 11:57:33;;;;;;;9.43;5.67;;;20.40;99.90;19.80;95917.00;;;;5031300;28;20699;-85
2021/08/01 12:00:25;;;;;;;5.70;5.17;;;20.30;99.90;19.80;95910.00;;;;5031248;28;20699;-82
2021/08/01 12:03:15;;;;;;;11.40;5.80;;;20.20;99.90;19.90;95906.00;;;;5031298;28;20236;-86
2021/08/01 12:06:04;;;;;;;6.30;4.90;;;20.20;99.90;19.90;95897.00;;;;5031286;28;20246;-86
2021/08/01 12:08:55;;;;;;;7.83;5.50;;;20.20;99.90;20.00;95888.00;;;;5030881;28;20190;-85
2021/08/01 12:11:52;;;;;;;9.30;5.90;;;20.20;99.90;19.90;95884.00;;;;5032072;28;20221;-86
2021/08/01 12:14:47;;;;;;;8.20;5.97;;;20.20;99.90;19.90;95891.00;;;;5031747;28;20221;-84
2021/08/01 12:17:49;;;;;;;7.20;6.33;;;20.00;99.90;19.90;95884.00;;;;5031834;28;20208;-84
2021/08/01 12:20:55;;;;;;;7.17;6.10;;;20.10;99.90;19.90;95888.00;;;;5024136;28;20216;-85
2021/08/01 12:23:45;;;;;;;7.07;6.00;;;20.20;99.90;19.90;95877.00;;;;5019239;28;20232;-85
2021/08/01 12:26:41;;;;;;;8.80;6.20;;;20.10;99.90;19.90;95874.00;;;;5012318;28;20206;-86
2021/08/01 12:29:37;;;;;;;6.83;6.17;;;20.10;99.90;19.90;95868.00;;;;5012305;28;20200;-85
2021/08/01 12:32:29;;;;;;;6.50;5.90;;;20.10;99.90;20.00;95860.00;;;;5011181;28;20230;-84
2021/08/01 12:35:20;;;;;;;6.63;5.97;;;20.20;99.90;19.90;95884.00;;;;5011070;28;20214;-84
2021/08/01 12:38:10;;;;;;;8.73;5.57;;;20.10;99.90;19.90;95887.00;;;;5020477;28;20206;-84
2021/08/01 12:41:13;;;;;;;6.93;6.00;;;20.10;99.90;20.20;95859.00;;;;5021280;28;20205;-84
2021/08/01 12:44:15;;;;;;;8.40;5.80;;;20.20;99.90;20.50;95872.00;;;;5009991;28;20279;-84